Time;durP1;ratioP1;P1;durP2;ratioP2;P2;SDS_P1;SDS_P2;PMS_P1;PMS_P2;Temp;Humidity;BMP_temperature;BMP_pressure;BME280_temperature;BME280_humidity;BME280_pressure;Samples;Min_cycle;Max_cycle;Signal;HPM_P1;HPM_P2
2022/05/30 00:01:15;;;;;;;7.20;1.77;;;9.20;99.90;;;;;;5109255;27;20576;-79
2022/05/30 00:03:42;;;;;;;6.60;2.13;;;9.20;99.90;;;;;;5131788;27;20216;-79
2022/05/30 00:06:12;;;;;;;5.47;1.90;;;9.20;99.90;;;;;;5110486;27;20311;-79
2022/05/30 00:08:39;;;;;;;7.33;2.03;;;9.20;99.90;;;;;;5106515;27;20224;-78
2022/05/30 00:11:08;;;;;;;6.83;1.73;;;9.20;99.90;;;;;;5109848;27;20220;-78
2022/05/30 00:13:37;;;;;;;4.77;2.00;;;9.20;99.90;;;;;;5125993;27;20239;-79
2022/05/30 00:16:06;;;;;;;8.07;2.03;;;9.20;99.90;;;;;;5103601;27;20207;-78
2022/05/30 00:18:33;;;;;;;8.63;1.90;;;9.20;99.90;;;;;;5107751;27;20284;-78
2022/05/30 00:21:03;;;;;;;4.07;2.07;;;9.20;99.90;;;;;;5101794;27;20319;-78
2022/05/30 00:23:31;;;;;;;8.50;2.77;;;9.20;99.90;;;;;;5118732;27;20297;-78
2022/05/30 00:25:58;;;;;;;8.27;2.10;;;9.20;99.90;;;;;;5101553;27;20822;-77
2022/05/30 00:28:25;;;;;;;6.10;1.60;;;9.20;99.90;;;;;;5104831;27;20240;-78
2022/05/30 00:30:52;;;;;;;10.13;1.80;;;9.20;99.90;;;;;;5123983;27;20309;-77
2022/05/30 00:33:20;;;;;;;8.77;1.83;;;9.20;99.90;;;;;;5101251;27;20225;-78
2022/05/30 00:35:47;;;;;;;5.73;1.63;;;9.30;99.90;;;;;;5106888;27;20306;-78
2022/05/30 00:38:14;;;;;;;5.40;1.60;;;9.30;99.90;;;;;;5107659;27;20227;-79
2022/05/30 00:40:47;;;;;;;6.10;1.53;;;9.20;99.90;;;;;;5106543;27;20766;-79
2022/05/30 00:43:22;;;;;;;6.53;2.00;;;9.20;99.90;;;;;;5115393;27;20932;-79
2022/05/30 00:45:49;;;;;;;8.93;1.83;;;9.20;99.90;;;;;;5103552;27;20224;-79
2022/05/30 00:48:16;;;;;;;3.13;1.53;;;9.30;99.90;;;;;;5105659;27;20302;-79
2022/05/30 00:50:44;;;;;;;6.87;2.00;;;9.30;99.90;;;;;;5102371;27;20317;-78
2022/05/30 00:53:13;;;;;;;6.40;1.90;;;9.20;99.90;;;;;;5116489;27;20219;-78
2022/05/30 00:55:41;;;;;;;6.60;2.10;;;9.30;99.90;;;;;;5104167;27;20268;-78
2022/05/30 00:58:12;;;;;;;7.60;2.30;;;9.20;99.90;;;;;;5092665;27;20224;-78
2022/05/30 01:00:40;;;;;;;4.17;1.87;;;9.20;99.90;;;;;;5104225;27;20292;-78
2022/05/30 01:08:37;;;;;;;7.30;1.67;;;9.20;99.90;;;;;;5102275;27;20710;-78
2022/05/30 01:11:04;;;;;;;7.50;1.87;;;9.20;99.90;;;;;;5102992;27;20607;-78
2022/05/30 01:13:32;;;;;;;8.13;1.80;;;9.20;99.90;;;;;;5119351;27;20223;-78
2022/05/30 01:15:58;;;;;;;8.67;1.93;;;9.20;99.90;;;;;;5106527;27;20280;-79
2022/05/30 01:18:30;;;;;;;4.27;1.40;;;9.20;99.90;;;;;;5104444;27;20251;-80
2022/05/30 01:21:19;;;;;;;6.13;1.83;;;9.20;99.90;;;;;;5102034;27;20220;-79
2022/05/30 01:23:58;;;;;;;5.40;1.77;;;9.20;99.90;;;;;;5104527;27;21573;-79
2022/05/30 01:27:01;;;;;;;6.63;1.83;;;9.20;99.90;;;;;;5121320;27;20229;-79
2022/05/30 01:29:35;;;;;;;12.73;1.90;;;9.10;99.90;;;;;;5101019;28;20223;-79
2022/05/30 01:32:02;;;;;;;8.40;1.90;;;9.10;99.90;;;;;;5123257;27;20304;-79
2022/05/30 01:34:29;;;;;;;5.07;1.33;;;9.20;99.90;;;;;;5097293;27;20288;-79
2022/05/30 01:36:56;;;;;;;4.53;1.60;;;9.20;99.90;;;;;;5103403;27;20696;-79
2022/05/30 01:39:31;;;;;;;5.70;1.83;;;9.10;99.90;;;;;;5107176;27;20684;-79
2022/05/30 01:41:58;;;;;;;4.63;1.73;;;9.10;99.90;;;;;;5101775;27;20224;-80
2022/05/30 01:44:24;;;;;;;7.73;1.83;;;9.10;99.90;;;;;;5104037;27;20243;-79
2022/05/30 01:46:54;;;;;;;8.33;1.80;;;9.10;99.90;;;;;;5107810;27;20257;-79
2022/05/30 01:49:21;;;;;;;4.83;1.90;;;9.10;99.90;;;;;;5104931;27;20323;-80
2022/05/30 01:51:52;;;;;;;5.77;1.80;;;9.00;99.90;;;;;;5103907;27;20234;-80
2022/05/30 01:54:19;;;;;;;5.00;1.40;;;9.00;99.90;;;;;;5114772;27;20228;-79
2022/05/30 01:57:16;;;;;;;9.40;1.93;;;9.00;99.90;;;;;;5103132;27;20834;-80
2022/05/30 02:00:03;;;;;;;4.90;2.10;;;9.00;99.90;;;;;;5099725;27;20581;-80
2022/05/30 02:02:53;;;;;;;4.80;1.70;;;9.00;99.90;;;;;;5100175;27;20226;-81
2022/05/30 02:05:20;;;;;;;6.40;2.00;;;8.90;99.90;;;;;;5101238;27;20296;-81
2022/05/30 02:07:47;;;;;;;5.93;1.87;;;8.90;99.90;;;;;;5115409;27;21023;-80
2022/05/30 02:10:19;;;;;;;5.40;1.93;;;8.90;99.90;;;;;;5103504;27;20563;-80
2022/05/30 02:12:47;;;;;;;5.90;1.87;;;9.00;99.90;;;;;;5117126;27;20231;-81
2022/05/30 02:18:22;;;;;;;6.20;1.70;;;8.90;99.90;;;;;;5104222;27;20230;-81
2022/05/30 02:20:49;;;;;;;7.17;2.10;;;8.90;99.90;;;;;;5103663;27;20646;-81
2022/05/30 02:23:17;;;;;;;10.03;2.40;;;8.90;99.90;;;;;;5103516;27;20223;-80
2022/05/30 02:25:44;;;;;;;6.87;1.83;;;8.90;99.90;;;;;;5106904;27;20228;-81
2022/05/30 02:28:13;;;;;;;5.33;1.77;;;8.90;99.90;;;;;;5104479;27;20222;-81
2022/05/30 02:30:40;;;;;;;6.83;1.70;;;8.90;99.90;;;;;;5103931;27;20722;-81
2022/05/30 02:38:37;;;;;;;7.73;2.10;;;9.00;99.90;;;;;;5106082;28;20280;-79
2022/05/30 02:41:23;;;;;;;3.67;1.70;;;8.90;99.90;;;;;;5120768;27;20227;-79
2022/05/30 02:43:56;;;;;;;4.33;1.63;;;8.90;99.90;;;;;;5101494;27;20761;-80
2022/05/30 02:46:23;;;;;;;7.73;2.17;;;8.90;99.90;;;;;;5104040;27;20652;-80
2022/05/30 02:48:50;;;;;;;6.43;2.10;;;8.90;99.90;;;;;;5103985;27;20281;-80
2022/05/30 02:51:20;;;;;;;7.07;2.07;;;9.00;99.90;;;;;;5106220;27;20849;-80
2022/05/30 02:53:47;;;;;;;5.50;2.13;;;8.90;99.90;;;;;;5103150;28;20226;-81
2022/05/30 02:56:33;;;;;;;6.77;2.27;;;8.90;99.90;;;;;;5127454;27;20698;-80
2022/05/30 02:59:00;;;;;;;7.53;1.80;;;8.90;99.90;;;;;;5107303;28;20210;-80
2022/05/30 03:01:34;;;;;;;6.80;2.30;;;8.90;99.90;;;;;;5106519;28;20508;-80
2022/05/30 03:04:02;;;;;;;7.93;2.17;;;8.90;99.90;;;;;;5098097;28;20760;-80
2022/05/30 03:06:30;;;;;;;5.40;1.67;;;8.80;99.90;;;;;;5107379;27;20283;-80
2022/05/30 03:08:57;;;;;;;6.93;2.10;;;8.80;99.90;;;;;;5084151;28;20369;-81
2022/05/30 03:11:46;;;;;;;8.30;1.77;;;8.80;99.90;;;;;;5104146;28;20254;-81
2022/05/30 03:14:13;;;;;;;7.00;2.37;;;8.70;99.90;;;;;;5103934;28;20680;-81
2022/05/30 03:16:43;;;;;;;12.17;1.73;;;8.80;99.90;;;;;;5123895;27;20251;-81
2022/05/30 03:19:10;;;;;;;9.47;2.27;;;8.80;99.90;;;;;;5105783;28;20594;-80
2022/05/30 03:21:38;;;;;;;6.67;1.83;;;8.70;99.90;;;;;;5103869;27;20220;-80
2022/05/30 03:24:08;;;;;;;4.93;1.77;;;8.70;99.90;;;;;;5099347;28;20573;-80
2022/05/30 03:26:42;;;;;;;4.40;1.57;;;8.70;99.90;;;;;;5103560;28;20654;-81
2022/05/30 03:29:09;;;;;;;6.80;2.20;;;8.70;99.90;;;;;;5096529;27;20256;-80
2022/05/30 03:31:41;;;;;;;9.23;2.07;;;8.70;99.90;;;;;;5108307;27;20220;-81
2022/05/30 03:34:16;;;;;;;7.37;2.57;;;8.70;99.90;;;;;;5104748;27;20223;-80
2022/05/30 03:36:45;;;;;;;5.80;1.90;;;8.70;99.90;;;;;;5104558;27;20720;-81
2022/05/30 03:39:32;;;;;;;5.60;1.90;;;8.70;99.90;;;;;;5120482;27;20297;-81
2022/05/30 03:42:25;;;;;;;6.13;2.30;;;8.80;99.90;;;;;;5123203;27;20302;-81
2022/05/30 03:44:59;;;;;;;7.10;1.97;;;8.70;99.90;;;;;;5103018;28;20229;-80
2022/05/30 03:47:28;;;;;;;6.77;2.07;;;8.80;99.90;;;;;;5107834;27;20233;-81
2022/05/30 03:50:01;;;;;;;4.47;2.00;;;8.80;99.90;;;;;;5110457;27;20930;-81
2022/05/30 03:52:33;;;;;;;6.97;2.00;;;8.80;99.90;;;;;;5107469;27;20253;-81
2022/05/30 03:55:03;;;;;;;8.30;1.90;;;8.80;99.90;;;;;;5115924;27;20308;-82
2022/05/30 03:57:30;;;;;;;5.77;2.00;;;8.80;99.90;;;;;;5107527;27;20306;-81
2022/05/30 03:59:56;;;;;;;6.67;2.00;;;8.80;99.90;;;;;;5104222;27;20654;-81
2022/05/30 04:02:24;;;;;;;8.00;2.47;;;8.80;99.90;;;;;;5100921;27;21176;-82
2022/05/30 04:04:51;;;;;;;5.03;1.57;;;8.80;99.90;;;;;;5105001;27;20224;-82
2022/05/30 04:07:18;;;;;;;6.13;1.80;;;8.80;99.90;;;;;;5104810;27;20764;-81
2022/05/30 04:10:21;;;;;;;8.23;1.60;;;8.80;99.90;;;;;;5111703;27;20216;-80
2022/05/30 04:13:09;;;;;;;6.60;2.27;;;8.80;99.90;;;;;;5121499;27;20713;-80
2022/05/30 04:15:57;;;;;;;5.63;1.70;;;8.80;99.90;;;;;;5127951;27;21001;-81
2022/05/30 04:18:24;;;;;;;7.00;1.70;;;8.80;99.90;;;;;;5110399;27;20228;-81
2022/05/30 04:20:51;;;;;;;10.20;2.23;;;8.90;99.90;;;;;;5106507;27;20225;-81
2022/05/30 04:23:19;;;;;;;5.03;1.57;;;8.90;99.90;;;;;;5100006;27;21890;-80
2022/05/30 04:25:54;;;;;;;5.20;2.20;;;8.90;99.90;;;;;;5103898;27;20227;-79
2022/05/30 04:28:21;;;;;;;6.53;1.90;;;9.00;99.90;;;;;;5103249;27;20232;-81
2022/05/30 04:31:06;;;;;;;7.13;2.00;;;9.00;99.90;;;;;;5106863;27;20229;-81
2022/05/30 04:33:33;;;;;;;8.97;2.10;;;9.10;99.90;;;;;;5103796;27;20842;-81
2022/05/30 04:36:02;;;;;;;7.87;2.00;;;9.10;99.90;;;;;;5107020;27;20246;-81
2022/05/30 04:38:30;;;;;;;5.23;1.87;;;9.20;99.90;;;;;;5105091;27;20217;-79
2022/05/30 04:41:17;;;;;;;7.10;1.63;;;9.20;99.90;;;;;;5124831;27;20222;-79
2022/05/30 04:44:06;;;;;;;7.20;2.27;;;9.20;99.90;;;;;;5111427;27;20239;-80
2022/05/30 04:46:58;;;;;;;7.30;1.87;;;9.30;99.90;;;;;;5114008;27;20220;-80
2022/05/30 04:49:26;;;;;;;13.03;2.27;;;9.30;99.90;;;;;;5103542;27;20228;-79
2022/05/30 04:51:53;;;;;;;8.07;2.20;;;9.30;99.90;;;;;;5123833;27;20234;-78
2022/05/30 04:54:21;;;;;;;8.50;1.80;;;9.40;99.90;;;;;;5105334;27;20233;-80
2022/05/30 04:57:08;;;;;;;8.37;2.00;;;9.40;99.90;;;;;;5095765;27;20227;-78
2022/05/30 04:59:43;;;;;;;4.60;1.50;;;9.50;99.90;;;;;;5101081;27;20227;-79
2022/05/30 05:02:12;;;;;;;7.50;1.60;;;9.50;99.90;;;;;;5099206;27;20711;-79
2022/05/30 05:04:41;;;;;;;5.27;1.67;;;9.60;99.90;;;;;;5103175;27;20339;-81
2022/05/30 05:07:08;;;;;;;4.53;1.70;;;9.60;99.90;;;;;;5119912;27;20830;-81
2022/05/30 05:09:50;;;;;;;6.77;1.53;;;9.70;99.90;;;;;;5111527;27;20223;-82
2022/05/30 05:12:40;;;;;;;6.90;1.80;;;9.70;99.90;;;;;;5128801;27;20231;-80
2022/05/30 05:15:36;;;;;;;4.70;1.50;;;9.80;99.90;;;;;;5030998;27;20724;-80
2022/05/30 05:18:07;;;;;;;5.47;1.80;;;9.80;99.90;;;;;;5095422;27;20686;-80
2022/05/30 05:20:41;;;;;;;5.40;1.80;;;9.90;99.90;;;;;;5111616;27;20320;-79
2022/05/30 05:23:08;;;;;;;6.00;2.07;;;10.00;99.90;;;;;;5110806;27;20643;-80
2022/05/30 05:25:53;;;;;;;8.13;2.00;;;10.00;99.90;;;;;;5131252;27;20385;-80
2022/05/30 05:28:34;;;;;;;9.40;1.93;;;10.10;99.90;;;;;;5109424;27;20229;-80
2022/05/30 05:31:01;;;;;;;7.23;2.00;;;10.20;99.90;;;;;;5107963;27;20260;-80
2022/05/30 05:33:29;;;;;;;6.77;2.27;;;10.30;99.90;;;;;;5110488;27;20217;-80
2022/05/30 05:35:56;;;;;;;5.93;1.60;;;10.30;99.90;;;;;;5123340;27;20316;-80
2022/05/30 05:38:22;;;;;;;6.43;2.27;;;10.40;99.90;;;;;;5143360;27;20213;-80
2022/05/30 05:41:08;;;;;;;8.80;2.30;;;10.40;99.90;;;;;;5108688;28;20792;-80
2022/05/30 05:43:53;;;;;;;6.83;2.20;;;10.50;99.90;;;;;;5107647;27;20257;-80
2022/05/30 05:46:22;;;;;;;5.93;2.27;;;10.60;99.90;;;;;;5111431;27;20522;-80
2022/05/30 05:48:49;;;;;;;7.13;2.50;;;10.70;99.90;;;;;;5110703;27;20218;-80
2022/05/30 05:51:18;;;;;;;8.13;2.10;;;10.70;99.90;;;;;;5110707;27;20339;-80
2022/05/30 05:53:46;;;;;;;5.77;1.90;;;10.70;99.90;;;;;;5109281;27;20218;-80
2022/05/30 05:56:14;;;;;;;6.73;1.60;;;10.70;99.90;;;;;;5124734;27;20235;-80
2022/05/30 05:58:41;;;;;;;7.53;2.00;;;10.80;99.90;;;;;;5127605;27;20540;-80
2022/05/30 06:01:14;;;;;;;5.80;1.83;;;10.80;99.90;;;;;;5110206;27;20885;-80
2022/05/30 06:03:41;;;;;;;12.23;2.10;;;10.90;99.90;;;;;;5109388;27;20275;-80
2022/05/30 06:06:28;;;;;;;6.03;1.40;;;10.90;99.90;;;;;;5123766;27;20232;-80
2022/05/30 06:09:01;;;;;;;7.87;2.30;;;11.00;99.90;;;;;;5110677;27;20822;-80
2022/05/30 06:11:46;;;;;;;6.90;1.97;;;11.00;99.90;;;;;;5113847;27;20213;-80
2022/05/30 06:14:13;;;;;;;10.10;2.47;;;11.10;99.90;;;;;;5115216;27;21460;-80
2022/05/30 06:16:44;;;;;;;6.60;2.20;;;11.10;99.90;;;;;;5111076;27;20255;-80
2022/05/30 06:19:15;;;;;;;5.80;2.10;;;11.20;99.90;;;;;;5108672;27;20248;-80
2022/05/30 06:21:43;;;;;;;6.93;1.77;;;11.20;99.90;;;;;;5110384;27;20583;-80
2022/05/30 06:24:12;;;;;;;4.50;1.70;;;11.30;99.90;;;;;;5109536;27;20261;-80
2022/05/30 06:26:57;;;;;;;6.03;1.47;;;11.30;99.90;;;;;;5124922;27;20292;-80
2022/05/30 06:29:32;;;;;;;2.63;1.23;;;11.30;99.90;;;;;;5113614;27;20235;-80
2022/05/30 06:32:01;;;;;;;5.73;1.87;;;11.30;99.90;;;;;;5099896;27;20222;-80
2022/05/30 06:34:36;;;;;;;3.57;1.47;;;11.30;99.90;;;;;;5108977;27;20221;-80
2022/05/30 06:37:04;;;;;;;7.73;1.73;;;11.30;99.90;;;;;;5110182;27;20222;-80
2022/05/30 06:39:32;;;;;;;4.57;1.33;;;11.30;99.90;;;;;;5122929;27;20767;-80
2022/05/30 06:42:15;;;;;;;7.37;1.90;;;11.30;99.90;;;;;;5114314;27;20732;-80
2022/05/30 06:45:00;;;;;;;4.13;1.50;;;11.30;99.90;;;;;;5123584;27;20228;-80
2022/05/30 06:47:49;;;;;;;3.70;1.73;;;11.30;99.90;;;;;;5125521;27;20347;-81
2022/05/30 06:50:36;;;;;;;6.20;1.53;;;11.30;99.90;;;;;;5127262;27;20249;-81
2022/05/30 06:53:06;;;;;;;7.07;1.97;;;11.20;99.90;;;;;;5108337;28;20235;-81
2022/05/30 06:55:33;;;;;;;4.40;1.50;;;11.20;99.90;;;;;;5119488;28;20231;-81
2022/05/30 06:58:15;;;;;;;5.50;2.13;;;11.20;99.90;;;;;;5107656;28;20223;-80
2022/05/30 07:00:45;;;;;;;7.50;2.20;;;11.20;99.90;;;;;;5108336;28;20217;-81
2022/05/30 07:03:40;;;;;;;4.70;1.83;;;11.30;99.90;;;;;;5084534;28;20248;-81
2022/05/30 07:06:28;;;;;;;5.90;1.93;;;11.40;99.90;;;;;;5133371;27;20615;-81
2022/05/30 07:08:58;;;;;;;6.83;2.00;;;11.40;99.90;;;;;;5131420;27;20231;-81
2022/05/30 07:11:39;;;;;;;6.33;2.27;;;11.40;99.90;;;;;;5102378;27;20640;-81
2022/05/30 07:14:12;;;;;;;6.20;2.20;;;11.50;99.90;;;;;;5111258;27;20229;-81
2022/05/30 07:16:39;;;;;;;8.00;2.37;;;11.50;99.90;;;;;;5113309;27;20227;-81
2022/05/30 07:19:09;;;;;;;6.13;2.70;;;11.60;99.90;;;;;;5136465;27;20215;-81
2022/05/30 07:21:41;;;;;;;7.90;2.60;;;11.70;99.90;;;;;;5113528;27;20213;-81
2022/05/30 07:24:26;;;;;;;4.40;2.03;;;11.80;99.90;;;;;;5126301;27;20229;-81
2022/05/30 07:27:11;;;;;;;6.03;2.33;;;11.90;99.90;;;;;;5128842;27;20865;-81
2022/05/30 07:29:58;;;;;;;4.93;2.30;;;11.90;99.90;;;;;;5126690;27;20308;-81
2022/05/30 07:32:44;;;;;;;5.57;2.10;;;11.90;99.90;;;;;;5135211;27;20233;-80
2022/05/30 07:35:30;;;;;;;4.67;1.77;;;11.90;99.90;;;;;;5132421;27;20832;-80
2022/05/30 07:38:16;;;;;;;7.50;2.00;;;11.80;99.90;;;;;;5126776;27;20237;-80
2022/05/30 07:41:05;;;;;;;6.13;2.40;;;11.80;99.90;;;;;;5136476;27;20232;-80
2022/05/30 07:43:42;;;;;;;5.90;2.03;;;11.80;99.90;;;;;;5111936;27;20219;-80
2022/05/30 07:46:23;;;;;;;5.63;2.10;;;11.80;99.90;;;;;;5100300;27;20240;-80
2022/05/30 07:49:01;;;;;;;6.50;2.00;;;11.80;99.90;;;;;;5106491;27;20746;-80
2022/05/30 07:51:48;;;;;;;7.50;2.20;;;11.90;99.90;;;;;;5131801;27;20716;-80
2022/05/30 07:54:24;;;;;;;6.00;2.80;;;12.00;99.90;;;;;;5112940;27;20242;-80
2022/05/30 07:57:04;;;;;;;9.93;2.07;;;11.90;99.90;;;;;;5111048;28;20650;-79
2022/05/30 07:59:30;;;;;;;5.67;2.10;;;12.00;99.90;;;;;;5092705;28;20304;-80
2022/05/30 08:01:57;;;;;;;6.30;2.30;;;12.00;99.90;;;;;;5092773;28;20273;-80
2022/05/30 08:04:25;;;;;;;3.90;1.90;;;12.10;99.90;;;;;;5091028;28;20310;-81
2022/05/30 08:06:59;;;;;;;4.87;1.93;;;12.10;99.90;;;;;;5123206;27;20222;-81
2022/05/30 08:09:46;;;;;;;4.30;1.83;;;12.10;99.90;;;;;;5131940;27;20287;-80
2022/05/30 08:12:16;;;;;;;4.53;2.10;;;12.20;99.90;;;;;;5100677;27;20311;-80
2022/05/30 08:15:03;;;;;;;5.37;2.27;;;12.30;99.90;;;;;;5112574;27;20235;-80
2022/05/30 08:17:54;;;;;;;5.57;2.07;;;12.30;99.90;;;;;;5128531;27;20225;-80
2022/05/30 08:20:21;;;;;;;5.33;2.10;;;12.40;99.90;;;;;;5112004;27;20606;-80
2022/05/30 08:22:49;;;;;;;4.97;2.00;;;12.40;99.90;;;;;;5113660;27;20220;-80
2022/05/30 08:25:18;;;;;;;5.70;1.63;;;12.50;99.90;;;;;;5131755;27;20254;-81
2022/05/30 08:27:47;;;;;;;7.10;1.80;;;12.50;99.90;;;;;;5112670;27;20228;-81
2022/05/30 08:30:18;;;;;;;6.33;1.73;;;12.50;99.90;;;;;;5112958;27;20581;-80
2022/05/30 08:32:51;;;;;;;4.93;1.67;;;12.40;99.90;;;;;;5112387;27;20220;-80
2022/05/30 08:35:37;;;;;;;5.37;1.60;;;12.30;99.90;;;;;;5128843;27;20232;-80
2022/05/30 08:38:06;;;;;;;5.27;2.03;;;12.20;99.90;;;;;;5113350;27;20266;-80
2022/05/30 08:43:29;;;;;;;6.97;3.77;;;12.00;99.90;;;;;;5111667;27;20225;-80
2022/05/30 08:46:10;;;;;;;5.70;2.30;;;11.90;99.90;;;;;;5113670;27;20649;-80
2022/05/30 08:48:58;;;;;;;4.97;2.17;;;11.70;99.90;;;;;;5112058;27;20224;-79
2022/05/30 08:51:58;;;;;;;6.00;2.30;;;11.60;99.90;;;;;;5111475;27;20224;-80
2022/05/30 08:54:43;;;;;;;5.00;1.97;;;11.40;99.90;;;;;;5102052;27;20224;-81
2022/05/30 08:57:41;;;;;;;6.87;3.00;;;11.20;99.90;;;;;;5116212;27;20233;-81
2022/05/30 09:00:14;;;;;;;6.47;3.70;;;11.10;99.90;;;;;;5113117;27;20874;-80
2022/05/30 09:03:06;;;;;;;7.10;2.40;;;10.90;99.90;;;;;;5110283;28;20233;-81
2022/05/30 09:05:40;;;;;;;5.20;2.33;;;10.90;99.90;;;;;;5129847;27;20250;-81
2022/05/30 09:08:11;;;;;;;8.07;3.13;;;10.80;99.90;;;;;;5112589;27;20219;-81
2022/05/30 09:10:55;;;;;;;7.23;2.43;;;10.70;99.90;;;;;;5113388;27;20231;-81
2022/05/30 09:13:28;;;;;;;7.47;2.50;;;10.70;99.90;;;;;;5111872;27;21118;-81
2022/05/30 09:16:23;;;;;;;5.70;2.27;;;10.60;99.90;;;;;;5111679;28;20225;-81
2022/05/30 09:18:52;;;;;;;7.83;2.90;;;10.60;99.90;;;;;;5111893;27;20756;-80
2022/05/30 09:21:21;;;;;;;4.30;2.73;;;10.60;99.90;;;;;;5112455;27;20255;-81
2022/05/30 09:23:50;;;;;;;4.23;2.93;;;10.60;99.90;;;;;;5127152;27;21030;-81
2022/05/30 09:26:23;;;;;;;6.43;3.27;;;10.70;99.90;;;;;;5112394;27;20629;-81
2022/05/30 09:29:22;;;;;;;7.30;2.47;;;10.70;99.90;;;;;;5118745;27;20335;-81
2022/05/30 09:32:19;;;;;;;4.10;2.57;;;10.80;99.90;;;;;;5130433;27;20238;-81
2022/05/30 09:34:55;;;;;;;5.50;3.10;;;10.90;99.90;;;;;;5141116;27;20238;-80
2022/05/30 09:37:27;;;;;;;5.50;2.90;;;11.00;99.90;;;;;;5129728;27;20228;-81
2022/05/30 09:40:13;;;;;;;3.53;2.27;;;11.10;99.90;;;;;;5142512;27;20214;-82
2022/05/30 09:43:06;;;;;;;4.83;2.50;;;11.20;99.90;;;;;;5109908;27;20360;-80
2022/05/30 09:45:36;;;;;;;4.97;2.07;;;11.40;99.90;;;;;;5111162;27;20308;-81
2022/05/30 09:48:11;;;;;;;3.10;1.87;;;11.60;99.90;;;;;;5129174;27;20249;-81
2022/05/30 09:50:44;;;;;;;2.87;1.97;;;11.70;99.90;;;;;;5108743;27;20719;-81
2022/05/30 09:53:33;;;;;;;4.67;1.90;;;11.80;99.90;;;;;;5105128;27;20233;-81
2022/05/30 09:56:02;;;;;;;5.33;2.33;;;11.90;99.90;;;;;;5109253;27;20209;-81
2022/05/30 09:58:44;;;;;;;5.50;2.00;;;12.00;99.90;;;;;;5111005;27;20220;-81
2022/05/30 10:01:33;;;;;;;6.17;2.60;;;12.10;99.90;;;;;;5091134;28;20221;-81
2022/05/30 10:04:16;;;;;;;5.87;2.30;;;12.00;99.90;;;;;;5091812;27;20253;-81
2022/05/30 10:07:15;;;;;;;3.63;2.10;;;12.00;99.90;;;;;;5103324;27;20236;-81
2022/05/30 10:09:57;;;;;;;7.73;2.00;;;11.90;99.90;;;;;;5128534;27;20245;-80
2022/05/30 10:12:34;;;;;;;4.50;2.43;;;11.80;99.90;;;;;;5114385;27;20218;-81
2022/05/30 10:15:02;;;;;;;4.40;2.90;;;11.70;99.90;;;;;;5100539;27;20263;-80
2022/05/30 10:17:36;;;;;;;2.80;2.03;;;11.60;99.90;;;;;;5113831;27;20304;-81
2022/05/30 10:20:14;;;;;;;3.53;1.90;;;11.40;99.90;;;;;;5109462;27;20264;-81
2022/05/30 10:30:39;;;;;;;3.63;3.30;;;10.90;99.90;;;;;;5129691;27;20235;-81
2022/05/30 10:33:41;;;;;;;5.30;2.47;;;10.80;99.90;;;;;;5129755;27;20432;-81
2022/05/30 10:36:18;;;;;;;3.70;2.50;;;10.60;99.90;;;;;;5102670;27;20281;-82
2022/05/30 10:38:59;;;;;;;5.47;2.80;;;10.50;99.90;;;;;;5111601;28;20925;-82
2022/05/30 10:41:34;;;;;;;3.63;2.40;;;10.40;99.90;;;;;;5112072;27;20228;-82
2022/05/30 10:44:07;;;;;;;5.17;3.77;;;10.40;99.90;;;;;;5110601;28;20228;-82
2022/05/30 10:46:43;;;;;;;4.70;3.60;;;10.30;99.90;;;;;;5129473;27;20224;-82
2022/05/30 10:49:14;;;;;;;3.93;2.83;;;10.30;99.90;;;;;;5111197;27;20510;-82
2022/05/30 10:51:51;;;;;;;5.17;2.63;;;10.30;99.90;;;;;;5111758;28;20243;-82
2022/05/30 10:54:25;;;;;;;3.17;2.40;;;10.40;99.90;;;;;;5110298;28;20607;-82
2022/05/30 10:57:07;;;;;;;3.03;2.70;;;10.40;99.90;;;;;;5130996;27;20220;-81
2022/05/30 10:59:41;;;;;;;3.57;2.87;;;10.40;99.90;;;;;;5122655;28;20315;-82
2022/05/30 11:02:17;;;;;;;3.47;2.37;;;10.50;99.90;;;;;;5101862;28;20255;-80
2022/05/30 11:04:50;;;;;;;6.10;3.43;;;10.60;99.90;;;;;;5109644;28;20740;-81
2022/05/30 11:07:36;;;;;;;3.67;2.97;;;10.70;99.90;;;;;;5110031;28;20217;-82
2022/05/30 11:10:07;;;;;;;4.73;3.00;;;10.80;99.90;;;;;;5110843;28;20227;-81
2022/05/30 11:12:39;;;;;;;4.27;3.00;;;10.80;99.90;;;;;;5128997;28;20788;-82
2022/05/30 11:15:12;;;;;;;6.10;3.33;;;10.90;99.90;;;;;;5110370;27;20317;-81
2022/05/30 11:18:07;;;;;;;5.67;3.20;;;11.00;99.90;;;;;;5128550;27;20629;-81
2022/05/30 11:21:00;;;;;;;5.10;2.93;;;11.10;99.90;;;;;;5110858;28;20221;-82
2022/05/30 11:23:27;;;;;;;4.47;3.10;;;11.20;99.90;;;;;;5109429;27;20262;-82
2022/05/30 11:26:24;;;;;;;4.83;2.60;;;11.40;99.90;;;;;;5129722;27;20230;-81
2022/05/30 11:29:09;;;;;;;4.60;2.80;;;11.50;99.90;;;;;;5125754;27;20308;-82
2022/05/30 11:31:46;;;;;;;4.70;3.00;;;11.70;99.90;;;;;;5127351;28;20313;-82
2022/05/30 11:34:42;;;;;;;4.30;2.93;;;12.00;99.90;;;;;;5107912;28;20873;-82
2022/05/30 11:37:36;;;;;;;3.13;2.20;;;12.20;99.90;;;;;;5119700;28;20721;-81
2022/05/30 11:40:16;;;;;;;12.40;3.07;;;12.50;99.90;;;;;;5121351;28;20241;-82
2022/05/30 11:42:50;;;;;;;5.17;2.67;;;12.90;99.90;;;;;;5128647;28;20576;-82
2022/05/30 11:45:33;;;;;;;4.33;2.23;;;13.20;99.90;;;;;;5109744;28;20315;-82
2022/05/30 11:48:05;;;;;;;5.27;1.73;;;13.60;99.90;;;;;;5111120;28;20255;-82
2022/05/30 11:50:36;;;;;;;2.23;2.03;;;13.90;99.90;;;;;;5111091;27;20297;-83
2022/05/30 11:53:40;;;;;;;4.90;1.80;;;14.20;99.90;;;;;;5130970;27;20221;-82
2022/05/30 11:56:15;;;;;;;2.20;1.70;;;14.50;99.90;;;;;;5111189;27;20222;-83
2022/05/30 11:59:23;;;;;;;3.07;1.63;;;14.80;99.90;;;;;;5115181;27;20291;-82
2022/05/30 12:01:54;;;;;;;2.37;1.20;;;15.10;99.90;;;;;;5114257;27;20331;-82
2022/05/30 12:04:56;;;;;;;3.03;1.50;;;15.20;99.90;;;;;;5113530;27;20430;-82
2022/05/30 12:07:41;;;;;;;2.33;1.20;;;15.40;99.90;;;;;;5113810;27;20308;-83
2022/05/30 12:10:20;;;;;;;1.80;1.30;;;15.40;99.90;;;;;;5132214;27;20237;-82
2022/05/30 12:12:57;;;;;;;3.60;1.90;;;15.50;99.90;;;;;;5134130;27;20219;-83
2022/05/30 12:16:03;;;;;;;2.47;1.33;;;15.50;99.90;;;;;;5134972;27;20231;-82
2022/05/30 12:24:45;;;;;;;1.77;1.33;;;15.70;99.60;;;;;;5133894;27;20352;-83
2022/05/30 12:27:33;;;;;;;4.70;1.50;;;15.70;99.40;;;;;;5113884;27;20307;-83
2022/05/30 12:30:06;;;;;;;3.27;1.60;;;15.50;99.00;;;;;;5094806;28;20676;-83
2022/05/30 12:32:46;;;;;;;2.57;1.30;;;15.30;99.10;;;;;;5094628;28;20215;-82
2022/05/30 12:35:26;;;;;;;3.90;2.47;;;15.10;99.40;;;;;;5092768;28;20241;-83
2022/05/30 12:38:09;;;;;;;3.50;1.80;;;14.90;99.10;;;;;;5111868;28;20349;-83
2022/05/30 12:40:39;;;;;;;3.17;1.53;;;14.60;98.50;;;;;;5094043;28;20214;-83
2022/05/30 12:43:16;;;;;;;4.03;1.93;;;14.40;99.30;;;;;;5092004;28;20239;-83
2022/05/30 12:45:47;;;;;;;3.70;2.20;;;14.20;99.80;;;;;;5111948;28;20310;-83
2022/05/30 12:48:20;;;;;;;3.07;1.97;;;13.90;99.90;;;;;;5111386;28;20324;-82
2022/05/30 12:51:14;;;;;;;3.47;1.63;;;13.70;99.90;;;;;;5111372;27;20323;-83
2022/05/30 12:54:14;;;;;;;6.10;2.83;;;13.40;99.90;;;;;;5113565;27;20286;-82
2022/05/30 12:57:07;;;;;;;4.40;2.10;;;13.30;99.90;;;;;;5109932;27;20669;-82
2022/05/30 12:59:55;;;;;;;2.60;1.70;;;13.10;99.90;;;;;;5112250;27;20226;-82
2022/05/30 13:03:03;;;;;;;4.13;1.97;;;12.80;99.90;;;;;;5102384;27;20570;-82
2022/05/30 13:05:45;;;;;;;3.80;2.00;;;12.80;99.90;;;;;;5129246;27;20262;-82
2022/05/30 13:09:00;;;;;;;4.10;1.90;;;12.60;99.90;;;;;;5113226;27;20249;-82
2022/05/30 13:11:49;;;;;;;2.13;1.80;;;12.40;99.90;;;;;;5068011;28;20241;-82
2022/05/30 13:14:25;;;;;;;3.13;1.70;;;12.40;99.90;;;;;;5119300;27;20314;-82
2022/05/30 13:16:53;;;;;;;4.63;2.10;;;12.20;99.90;;;;;;5113337;27;20245;-82
2022/05/30 13:19:20;;;;;;;4.90;2.13;;;12.10;99.90;;;;;;5130633;27;20246;-82
2022/05/30 13:21:50;;;;;;;3.47;2.00;;;12.10;99.90;;;;;;5113037;27;20222;-82
2022/05/30 13:24:32;;;;;;;2.20;2.00;;;12.00;99.90;;;;;;5130800;27;20263;-82
2022/05/30 13:27:00;;;;;;;4.80;2.70;;;12.00;99.90;;;;;;5114237;27;20236;-82
2022/05/30 13:29:30;;;;;;;2.87;2.50;;;12.00;99.90;;;;;;5109261;28;20222;-82
2022/05/30 13:31:57;;;;;;;2.40;2.20;;;12.00;99.90;;;;;;5130998;27;20227;-82
2022/05/30 13:34:28;;;;;;;3.77;2.60;;;12.00;99.90;;;;;;5102463;27;20315;-85
2022/05/30 13:36:59;;;;;;;7.07;2.60;;;12.00;99.90;;;;;;5114476;27;20305;-86
2022/05/30 13:39:26;;;;;;;4.20;2.03;;;12.00;99.90;;;;;;5097669;28;20295;-83
2022/05/30 13:41:55;;;;;;;4.67;2.30;;;12.00;99.90;;;;;;5124914;27;20222;-84
2022/05/30 13:44:26;;;;;;;4.37;2.73;;;12.00;99.90;;;;;;5126843;27;20562;-85
2022/05/30 13:46:55;;;;;;;4.47;2.57;;;12.00;99.90;;;;;;5107051;27;20335;-83
2022/05/30 13:49:35;;;;;;;2.93;2.63;;;12.10;99.90;;;;;;5128243;27;20224;-84
2022/05/30 13:52:06;;;;;;;6.03;2.87;;;12.10;99.90;;;;;;5109821;27;20229;-86
2022/05/30 13:54:33;;;;;;;3.87;2.90;;;12.20;99.90;;;;;;5126208;27;20334;-86
2022/05/30 13:57:00;;;;;;;3.20;2.30;;;12.30;99.90;;;;;;5107189;27;20233;-83
2022/05/30 13:59:33;;;;;;;3.20;2.33;;;12.30;99.90;;;;;;5129928;27;20218;-82
2022/05/30 14:02:03;;;;;;;2.33;1.93;;;12.40;99.90;;;;;;5103929;27;20311;-84
2022/05/30 14:04:37;;;;;;;2.80;1.63;;;12.40;99.90;;;;;;5125227;27;20377;-83
2022/05/30 14:07:09;;;;;;;3.90;2.03;;;12.50;99.90;;;;;;5098799;27;20332;-85